createdAt,value
2022-10-23T00:08:39.328Z,56.1
2022-10-23T00:18:19.710Z,56.09
2022-10-23T00:28:05.669Z,56.2
2022-10-23T00:32:58.385Z,56.14
2022-10-23T00:37:51.320Z,56.09
2022-10-23T00:42:43.859Z,56.11
2022-10-23T00:47:30.477Z,56.14
2022-10-23T00:52:23.976Z,56.06
2022-10-23T00:57:17.810Z,56.15
2022-10-23T01:02:12.685Z,56.12
2022-10-23T01:11:52.596Z,56.11
2022-10-23T01:21:34.313Z,56.16
2022-10-23T01:26:28.367Z,56.16
2022-10-23T01:31:22.653Z,56.12
2022-10-23T01:36:15.154Z,56.07
2022-10-23T01:41:07.818Z,56.1
2022-10-23T01:46:02.202Z,56
2022-10-23T01:50:56.541Z,56.02
2022-10-23T01:55:50.968Z,56
2022-10-23T02:00:45.820Z,56.06
2022-10-23T02:10:25.598Z,55.98
2022-10-23T02:15:21.416Z,55.96
2022-10-23T02:20:13.654Z,56.02
2022-10-23T02:25:06.467Z,56.07
2022-10-23T02:29:59.296Z,56.03
2022-10-23T02:34:52.428Z,56.04
2022-10-23T02:39:39.423Z,55.9
2022-10-23T02:44:34.771Z,55.96
2022-10-23T02:54:15.476Z,55.95
2022-10-23T02:59:09.382Z,55.95
2022-10-23T03:04:01.911Z,56.06
2022-10-23T03:08:56.552Z,55.95
2022-10-23T03:13:48.748Z,55.97
2022-10-23T03:18:43.373Z,55.98
2022-10-23T03:23:37.559Z,55.94
2022-10-23T03:28:29.675Z,55.92
2022-10-23T03:33:22.639Z,55.92
2022-10-23T03:38:17.580Z,55.85
2022-10-23T03:43:09.969Z,55.92
2022-10-23T03:48:04.920Z,55.87
2022-10-23T03:52:59.027Z,56.03
2022-10-23T03:57:53.424Z,56.06
2022-10-23T04:02:46.008Z,56.16
2022-10-23T04:07:37.932Z,56.06
2022-10-23T04:12:24.852Z,56.07
2022-10-23T04:17:19.905Z,56.08
2022-10-23T04:22:13.044Z,55.96
2022-10-23T04:26:59.649Z,56
2022-10-23T04:31:55.038Z,56.01
2022-10-23T04:36:47.798Z,55.94
2022-10-23T04:41:42.874Z,56.02
2022-10-23T04:46:35.009Z,56.04
2022-10-23T04:51:30.023Z,57.35
2022-10-23T05:01:12.130Z,56.69
2022-10-23T05:06:05.254Z,55.85
2022-10-23T05:10:57.762Z,55.47
2022-10-23T05:15:50.469Z,56.91
2022-10-23T05:20:43.763Z,56.31
2022-10-23T05:25:36.992Z,55.87
2022-10-23T05:30:29.826Z,55.61
2022-10-23T05:35:24.677Z,55.54
2022-10-23T05:40:18.675Z,55.15
2022-10-23T05:45:10.961Z,55.62
2022-10-23T05:54:56.220Z,54.65
2022-10-23T05:59:48.619Z,54.55
2022-10-23T06:04:41.397Z,55.56
2022-10-23T06:09:34.322Z,56.04
2022-10-23T06:24:08.347Z,54.79
2022-10-23T06:29:00.992Z,54.05
2022-10-23T06:33:52.848Z,54.38
2022-10-23T06:38:45.299Z,54.32
2022-10-23T06:43:38.159Z,54.44
2022-10-23T06:48:32.526Z,54.59
2022-10-23T06:53:24.824Z,54.53
2022-10-23T06:58:17.333Z,54.5
2022-10-23T07:03:10.275Z,54.52
2022-10-23T07:08:02.707Z,54.56
2022-10-23T07:12:55.361Z,54.62
2022-10-23T07:17:46.677Z,54.65
2022-10-23T07:22:41.963Z,54.66
2022-10-23T07:27:35.738Z,54.78
2022-10-23T07:32:27.965Z,54.06
2022-10-23T07:37:20.692Z,54.64
2022-10-23T07:42:15.497Z,54.56
2022-10-23T07:47:07.638Z,54.59
2022-10-23T07:52:00.375Z,54.58
2022-10-23T07:56:52.926Z,54.61
2022-10-23T08:01:45.731Z,54.6
2022-10-23T08:06:38.339Z,54.61
2022-10-23T08:11:30.868Z,54.63
2022-10-23T08:16:25.778Z,54.64
2022-10-23T08:21:18.239Z,54.6
2022-10-23T08:26:04.878Z,54.69
2022-10-23T08:31:00.250Z,54.7
2022-10-23T08:35:53.614Z,54.79
2022-10-23T08:40:46.426Z,54.74
2022-10-23T08:45:41.377Z,54.76
2022-10-23T08:50:33.880Z,54.8
2022-10-23T08:55:20.602Z,54.84
2022-10-23T09:00:14.496Z,54.88
2022-10-23T09:05:02.477Z,54.9
2022-10-23T09:09:55.905Z,54.92
2022-10-23T09:14:49.665Z,54.95
2022-10-23T09:19:36.481Z,54.9
2022-10-23T09:24:31.889Z,54.91
2022-10-23T09:29:25.378Z,54.82
2022-10-23T09:34:18.457Z,54.91
2022-10-23T09:39:13.002Z,54.66
2022-10-23T09:44:07.882Z,54.47
2022-10-23T09:49:01.015Z,54.51
2022-10-23T09:53:54.697Z,54.49
2022-10-23T09:58:47.520Z,54.39
2022-10-23T10:03:41.617Z,54.38
2022-10-23T10:08:33.895Z,54.53
2022-10-23T10:13:26.628Z,54.5
2022-10-23T10:18:13.676Z,54.51
2022-10-23T10:23:09.266Z,54.45
2022-10-23T10:28:02.378Z,54.43
2022-10-23T10:32:55.334Z,54.48
2022-10-23T10:37:49.304Z,54.54
2022-10-23T10:42:40.565Z,54.56
2022-10-23T10:47:35.413Z,54.48
2022-10-23T10:52:29.925Z,54.5
2022-10-23T10:57:24.502Z,54.5
2022-10-23T11:02:18.882Z,54.54
2022-10-23T11:07:11.021Z,54.53
2022-10-23T11:12:03.687Z,54.43
2022-10-23T11:16:56.550Z,54.46
2022-10-23T11:21:50.929Z,54.47
2022-10-23T11:26:43.468Z,54.42
2022-10-23T11:31:36.427Z,54.46
2022-10-23T11:36:29.501Z,54.43
2022-10-23T11:41:23.607Z,54.46
2022-10-23T11:46:16.361Z,54.5
2022-10-23T11:51:08.926Z,54.31
2022-10-23T11:56:01.831Z,54.36
2022-10-23T12:00:57.063Z,54.46
2022-10-23T12:05:43.404Z,54.49
2022-10-23T12:10:39.434Z,54.66
2022-10-23T12:15:32.398Z,54.57
2022-10-23T12:20:26.822Z,54.62
2022-10-23T12:25:13.403Z,54.67
2022-10-23T12:30:06.903Z,54.75
2022-10-23T12:39:55.577Z,54.78
2022-10-23T12:49:42.367Z,54.88
2022-10-23T12:54:35.425Z,55.02
2022-10-23T12:59:27.793Z,54.92
2022-10-23T13:04:22.468Z,54.95
2022-10-23T13:09:14.890Z,55
2022-10-23T13:14:07.580Z,55.08
2022-10-23T13:18:59.968Z,55.37
2022-10-23T13:23:46.857Z,55.11
2022-10-23T13:28:40.639Z,55.14
2022-10-23T13:33:34.359Z,55.08
2022-10-23T13:38:26.795Z,55.16
2022-10-23T13:43:19.695Z,55.29
2022-10-23T13:48:12.414Z,55.2
2022-10-23T13:53:06.606Z,55.22
2022-10-23T13:57:59.279Z,55.17
2022-10-23T14:02:51.789Z,55.29
2022-10-23T14:07:44.619Z,55.33
2022-10-23T14:12:36.891Z,55.28
2022-10-23T14:17:29.694Z,55.36
2022-10-23T14:22:16.541Z,55.39
2022-10-23T14:27:10.449Z,55.45
2022-10-23T14:31:58.280Z,55.52
2022-10-23T14:37:03.940Z,55.49
2022-10-23T14:41:45.597Z,55.52
2022-10-23T14:46:40.464Z,55.5
2022-10-23T14:51:26.816Z,55.57
2022-10-23T14:56:20.549Z,55.59
2022-10-23T15:01:08.900Z,55.69
2022-10-23T15:06:03.805Z,55.64
2022-10-23T15:10:56.767Z,55.77
2022-10-23T15:15:52.059Z,55.73
2022-10-23T15:20:44.393Z,55.86
2022-10-23T15:25:36.809Z,55.86
2022-10-23T15:30:31.620Z,55.76
2022-10-23T15:35:23.712Z,55.75
2022-10-23T15:40:18.489Z,55.74
2022-10-23T15:45:12.839Z,55.74
2022-10-23T15:50:05.454Z,55.91
2022-10-23T15:54:58.459Z,55.83
2022-10-23T15:59:50.921Z,55.94
2022-10-23T16:04:45.572Z,55.95
2022-10-23T16:09:39.808Z,55.81
2022-10-23T16:14:32.418Z,55.93
2022-10-23T16:19:24.752Z,55.99
2022-10-23T16:24:19.547Z,56.55
2022-10-23T16:29:11.706Z,55.77
2022-10-23T16:33:58.668Z,56.37
2022-10-23T16:38:52.358Z,55.77
2022-10-23T16:43:46.269Z,56.54
2022-10-23T16:48:38.894Z,55.48
2022-10-23T16:53:33.700Z,57.54
2022-10-23T16:58:20.318Z,55.23
2022-10-23T17:03:13.810Z,55.1
2022-10-23T17:08:07.648Z,55.05
2022-10-23T17:13:00.585Z,54.93
2022-10-23T17:17:53.527Z,54.78
2022-10-23T17:22:45.882Z,56.22
2022-10-23T17:27:38.749Z,55.86
2022-10-23T17:32:33.048Z,54.29
2022-10-23T17:37:24.809Z,54.6
2022-10-23T17:42:19.774Z,54.34
2022-10-23T17:47:12.735Z,58.12
2022-10-23T17:52:04.880Z,53.97
2022-10-23T17:56:57.287Z,54.41
2022-10-23T18:06:44.909Z,54.51
2022-10-23T18:16:33.500Z,54.7
2022-10-23T18:21:28.618Z,54.61
2022-10-23T18:26:20.434Z,54.63
2022-10-23T18:31:12.837Z,54.66
2022-10-23T18:36:07.525Z,54.59
2022-10-23T18:41:00.837Z,54.78
2022-10-23T18:45:46.850Z,54.66
2022-10-23T18:50:41.345Z,54.75
2022-10-23T19:00:20.824Z,54.84
2022-10-23T19:05:14.505Z,54.93
2022-10-23T19:10:03.100Z,54.99
2022-10-23T19:14:57.499Z,55.12
2022-10-23T19:19:44.556Z,55.04
2022-10-23T19:24:38.058Z,55.25
2022-10-23T19:29:31.596Z,55.24
2022-10-23T19:34:18.636Z,55.26
2022-10-23T19:39:12.287Z,55.32
2022-10-23T19:43:59.662Z,55.17
2022-10-23T19:48:52.876Z,55.43
2022-10-23T19:53:40.819Z,55.63
2022-10-23T19:58:36.371Z,55.64
2022-10-23T20:03:28.968Z,55.63
2022-10-23T20:08:21.712Z,55.69
2022-10-23T20:13:20.580Z,55.68
2022-10-23T20:18:02.907Z,55.72
2022-10-23T20:22:57.093Z,55.73
2022-10-23T20:27:53.529Z,55.84
2022-10-23T20:32:45.203Z,55.85
2022-10-23T20:37:31.626Z,56.17
2022-10-23T20:42:25.294Z,55.92
2022-10-23T20:47:18.895Z,56.01
2022-10-23T20:52:05.799Z,55.98
2022-10-23T20:56:59.366Z,56.05
2022-10-23T21:01:55.211Z,56.08
2022-10-23T21:06:57.619Z,56.09
2022-10-23T21:11:35.341Z,56.04
2022-10-23T21:16:28.953Z,56.02
2022-10-23T21:21:23.764Z,56.1
2022-10-23T21:26:15.849Z,56.12
2022-10-23T21:31:08.601Z,56.15
2022-10-23T21:36:13.380Z,56.15
2022-10-23T21:40:55.543Z,56.2
2022-10-23T21:45:53.363Z,56.16
2022-10-23T21:50:44.806Z,56.16
2022-10-23T21:55:37.008Z,56.18
2022-10-23T22:00:29.707Z,56.14
2022-10-23T22:05:22.853Z,56.14
2022-10-23T22:10:15.264Z,56.2
2022-10-23T22:15:07.818Z,56.29
2022-10-23T22:20:00.621Z,56.24
2022-10-23T22:24:53.636Z,56.26
2022-10-23T22:29:48.483Z,56.3
2022-10-23T22:34:52.158Z,56.3
2022-10-23T22:39:35.890Z,56.25
2022-10-23T22:44:22.420Z,56.3
2022-10-23T22:49:15.485Z,56.34
2022-10-23T22:54:03.631Z,56.29
2022-10-23T22:58:56.908Z,56.32
2022-10-23T23:03:50.621Z,56.31
2022-10-23T23:08:45.991Z,56.35
2022-10-23T23:13:32.278Z,56.34
2022-10-23T23:18:25.353Z,56.34
2022-10-23T23:28:06.637Z,56.48
2022-10-23T23:32:54.599Z,56.49
2022-10-23T23:37:48.134Z,56.44
2022-10-23T23:42:41.916Z,56.47
2022-10-23T23:47:36.566Z,56.46
2022-10-23T23:52:28.884Z,56.48
2022-10-23T23:57:15.560Z,56.48
